This is the latest recevied weather packets stored in our database for station/object W6UA-13. If no packets are shown the sender has not sent any weather packets the latest 10 day(s).
| Time | Temp. | Humidity | Pressure | Rain* | Wind** | Luminosity | Snow |
|---|---|---|---|---|---|---|---|
| 1777453492 | 8.89° C | 86% | 1016.8 hPa | 0 mm | - | 0 W/m² | - |
| 1777452592 | 8.89° C | 85% | 1016.8 hPa | 0 mm | - | 0 W/m² | - |
| 1777451692 | 9.44° C | 85% | 1016.9 hPa | 0 mm | - | 0 W/m² | - |
| 1777450793 | 9.44° C | 85% | 1017.3 hPa | 0 mm | - | 0 W/m² | - |
| 1777449893 | 9.44° C | 85% | 1017.5 hPa | 0 mm | - | 0 W/m² | - |
| 1777448093 | 10° C | 83% | 1017.9 hPa | 0 mm | - | 0 W/m² | - |
| 1777447193 | 10.56° C | 83% | 1018 hPa | 0 mm | - | 0 W/m² | - |
| 1777446293 | 10.56° C | 83% | 1018 hPa | 0 mm | - | 0 W/m² | - |
| 1777445393 | 11.11° C | 83% | 1018.2 hPa | 0 mm | - | 0 W/m² | - |
| 1777444493 | 11.11° C | 83% | 1018 hPa | 0 mm | - | 0 W/m² | - |
| 1777443593 | 11.11° C | 83% | 1018.1 hPa | 0 mm | - | 0 W/m² | - |
| 1777442693 | 11.67° C | 82% | 1018 hPa | 0 mm | - | 0 W/m² | - |
| 1777441793 | 11.67° C | 82% | 1018 hPa | 0 mm | - | 0 W/m² | - |
| 1777440893 | 12.22° C | 82% | 1017.9 hPa | 0 mm | - | 0 W/m² | - |
| 1777439993 | 12.22° C | 81% | 1018 hPa | 0 mm | - | 0 W/m² | - |
| 1777439093 | 12.78° C | 79% | 1018.2 hPa | 0 mm | - | 0 W/m² | - |
| 1777438193 | 12.78° C | 78% | 1018.1 hPa | 0 mm | - | 0 W/m² | - |
| 1777437293 | 12.78° C | 77% | 1018.3 hPa | 0 mm | - | 0 W/m² | - |
| 1777405794 | 19.44° C | 58% | 1018.1 hPa | 0 mm | - | 886 W/m² | - |
| 1777404894 | 18.89° C | 60% | 1018.4 hPa | 0 mm | - | 881 W/m² | - |
| 1777403994 | 18.33° C | 60% | 1018.6 hPa | 0 mm | - | 870 W/m² | - |
| 1777403094 | 18.33° C | 61% | 1018.6 hPa | 0 mm | - | 828 W/m² | - |
| 1777400394 | 17.78° C | 60% | 1019 hPa | 0 mm | - | 810 W/m² | - |
| 1777398594 | 18.33° C | 59% | 1019 hPa | 0 mm | - | 733 W/m² | - |
| 1777397694 | 17.78° C | 60% | 1019 hPa | 0 mm | - | 698 W/m² | - |
* Rain latest hour (hover to see other rain measurements)
** Current wind speed in m/s (hover to see current wind gust speed)